Terminal Aerodrome Forecast
Issued by NWS

Home | Current Version | Previous Version | Text Only | Print | Product List | Glossary On
Versions: 1 2 3 4 5 6 7 8 9 10 11 12 13
000
FTUS42 TJSJ 270530
TAFNCM
TAF
TNCM 270530Z 2706/2806 VRB02KT P6SM FEW021
     FM271200 17008KT P6SM FEW022
     FM272300 VRB04KT P6SM FEW022=

USA.gov is the U.S. government's official web portal to all federal, state and local government web resources and services.